Cherryville, Missouri
Current Conditions -  °F | °C
As of 9:53 AM on Tuesday 21 Oct 2014 (Local Time) from KVIH Reporting Station
Clear Clear  
Wind Chill: 14°   Ceiling: Unl
Heat Index: 14°   Visibility: 10mi
Dew Point:   Wind: 5mph
Humidity: 65%   Direction: 290°WNW
Pressure: 30.13"   Gusts: NA
Location:  37.85°N, 91.28°W
Report Text: KVIH 211453Z AUTO 29004KT 10SM CLR 14/08 A3013 RMK AO2 SLP201 T01440078 51016
Loading
Personal Weather Stations






























Interactive Weather Map
Tropical Storm Tracking
New forecast layout! Learn more

10-Day Weather Forecast

Advertisements
Track Severe Weather on mobile